createdAt,value
2018-08-20T00:00:08.553Z,17.90
2018-08-20T00:02:38.523Z,18.00
2018-08-20T00:05:08.333Z,17.90
2018-08-20T00:10:09.541Z,17.80
2018-08-20T00:12:39.017Z,17.70
2018-08-20T00:15:08.374Z,17.60
2018-08-20T00:17:37.765Z,17.60
2018-08-20T00:20:08.153Z,17.60
2018-08-20T00:22:37.469Z,17.70
2018-08-20T00:25:14.986Z,17.80
2018-08-20T00:27:44.901Z,17.80
2018-08-20T00:30:16.540Z,17.80
2018-08-20T00:32:46.994Z,17.70
2018-08-20T00:35:18.677Z,17.70
2018-08-20T00:37:50.161Z,17.70
2018-08-20T00:40:32.161Z,17.70
2018-08-20T00:43:01.493Z,17.50
2018-08-20T00:45:30.886Z,17.50
2018-08-20T00:48:00.298Z,17.40
2018-08-20T00:53:12.844Z,17.40
2018-08-20T00:55:42.297Z,17.20
2018-08-20T00:58:11.738Z,17.00
2018-08-20T01:00:45.213Z,17.10
2018-08-20T01:03:14.622Z,17.00
2018-08-20T01:05:43.961Z,17.10
2018-08-20T01:08:13.365Z,17.10
2018-08-20T01:10:50.081Z,17.20
2018-08-20T01:13:19.508Z,17.30
2018-08-20T01:15:48.844Z,17.30
2018-08-20T01:18:18.217Z,17.20
2018-08-20T01:20:47.621Z,17.10
2018-08-20T01:23:16.969Z,16.90
2018-08-20T01:25:46.425Z,16.80
2018-08-20T01:28:15.874Z,16.90
2018-08-20T01:30:56.061Z,16.80
2018-08-20T01:33:25.411Z,16.90
2018-08-20T01:35:54.789Z,16.80
2018-08-20T01:38:24.141Z,16.90
2018-08-20T01:40:54.681Z,16.80
2018-08-20T01:43:24.173Z,16.60
2018-08-20T01:48:22.658Z,16.60
2018-08-20T01:51:06.632Z,16.70
2018-08-20T01:53:35.873Z,16.70
2018-08-20T01:56:05.245Z,16.80
2018-08-20T01:58:34.697Z,16.60
2018-08-20T02:01:07.517Z,16.70
2018-08-20T02:03:36.925Z,16.60
2018-08-20T02:06:06.120Z,16.70
2018-08-20T02:08:35.245Z,16.70
2018-08-20T02:11:11.692Z,16.60
2018-08-20T02:13:40.776Z,16.60
2018-08-20T02:16:10.624Z,16.60
2018-08-20T02:18:39.784Z,16.40
2018-08-20T02:21:09.996Z,16.40
2018-08-20T02:23:39.106Z,16.40
2018-08-20T02:26:08.284Z,16.40
2018-08-20T02:28:37.461Z,16.30
2018-08-20T02:31:07.789Z,16.20
2018-08-20T02:33:37.229Z,16.20
2018-08-20T02:36:06.656Z,16.20
2018-08-20T02:38:36.017Z,16.20
2018-08-20T02:41:19.356Z,16.00
2018-08-20T02:43:48.765Z,16.00
2018-08-20T02:46:28.041Z,15.90
2018-08-20T02:48:57.489Z,15.90
2018-08-20T02:51:27.817Z,15.80
2018-08-20T02:53:57.153Z,15.70
2018-08-20T02:56:26.597Z,15.80
2018-08-20T02:58:56.037Z,15.70
2018-08-20T03:01:26.401Z,15.60
2018-08-20T03:03:55.738Z,15.80
2018-08-20T03:06:25.085Z,15.80
2018-08-20T03:08:54.542Z,15.80
2018-08-20T03:11:28.721Z,15.80
2018-08-20T03:13:58.050Z,15.90
2018-08-20T03:16:27.388Z,15.70
2018-08-20T03:18:56.750Z,15.70
2018-08-20T03:21:39.773Z,15.60
2018-08-20T03:24:09.116Z,15.60
2018-08-20T03:26:38.490Z,15.60
2018-08-20T03:29:07.857Z,15.50
2018-08-20T03:31:37.478Z,15.40
2018-08-20T03:34:07.176Z,15.40
2018-08-20T03:36:36.469Z,15.50
2018-08-20T03:39:08.065Z,15.30
2018-08-20T03:41:38.454Z,15.30
2018-08-20T03:44:07.821Z,15.40
2018-08-20T03:46:37.229Z,15.50
2018-08-20T03:49:07.137Z,15.40
2018-08-20T03:51:38.573Z,15.30
2018-08-20T03:54:08.069Z,15.30
2018-08-20T03:56:37.500Z,15.30
2018-08-20T03:59:06.973Z,15.30
2018-08-20T04:01:36.437Z,15.30
2018-08-20T04:04:05.825Z,15.30
2018-08-20T04:06:35.190Z,15.30
2018-08-20T04:09:05.305Z,15.30
2018-08-20T04:14:05.706Z,15.20
2018-08-20T04:16:37.160Z,15.10
2018-08-20T04:19:08.169Z,14.70
2018-08-20T04:21:38.641Z,14.70
2018-08-20T04:24:07.993Z,14.70
2018-08-20T04:26:37.373Z,14.70
2018-08-20T04:29:06.853Z,14.80
2018-08-20T04:32:20.297Z,14.80
2018-08-20T04:34:49.733Z,14.80
2018-08-20T04:37:19.098Z,14.90
2018-08-20T04:39:48.513Z,14.90
2018-08-20T04:42:18.876Z,14.80
2018-08-20T04:44:48.146Z,14.80
2018-08-20T04:47:17.482Z,14.90
2018-08-20T04:49:46.718Z,14.90
2018-08-20T04:52:38.082Z,15.00
2018-08-20T04:55:07.193Z,14.90
2018-08-20T04:57:36.461Z,15.00
2018-08-20T05:00:08.661Z,15.00
2018-08-20T05:02:38.054Z,14.70
2018-08-20T05:05:07.636Z,14.80
2018-08-20T05:07:37.057Z,14.80
2018-08-20T05:10:06.794Z,14.80
2018-08-20T05:12:36.133Z,15.00
2018-08-20T05:15:05.738Z,14.90
2018-08-20T05:17:35.130Z,15.00
2018-08-20T05:20:04.761Z,15.10
2018-08-20T05:22:36.252Z,15.20
2018-08-20T05:25:06.332Z,15.30
2018-08-20T05:27:35.710Z,15.50
2018-08-20T05:30:06.258Z,15.40
2018-08-20T05:32:35.654Z,15.50
2018-08-20T05:35:05.853Z,15.50
2018-08-20T05:37:35.413Z,15.70
2018-08-20T05:40:04.588Z,15.60
2018-08-20T05:42:33.808Z,15.60
2018-08-20T05:45:02.904Z,15.80
2018-08-20T05:47:32.043Z,15.70
2018-08-20T05:50:01.100Z,16.00
2018-08-20T05:52:35.465Z,16.20
2018-08-20T05:55:04.477Z,16.40
2018-08-20T05:57:33.633Z,16.50
2018-08-20T06:00:02.701Z,16.70
2018-08-20T06:02:39.045Z,16.70
2018-08-20T06:05:08.125Z,17.00
2018-08-20T06:07:37.213Z,17.20
2018-08-20T06:10:07.138Z,17.40
2018-08-20T06:12:36.780Z,17.30
2018-08-20T06:15:10.711Z,17.40
2018-08-20T06:17:40.212Z,17.70
2018-08-20T06:20:17.090Z,17.90
2018-08-20T06:22:46.786Z,18.00
2018-08-20T06:25:16.869Z,17.70
2018-08-20T06:27:46.306Z,18.10
2018-08-20T06:30:18.033Z,18.40
2018-08-20T06:32:47.778Z,18.70
2018-08-20T06:35:17.188Z,19.00
2018-08-20T06:37:46.632Z,19.20
2018-08-20T06:40:15.999Z,19.50
2018-08-20T06:42:45.366Z,19.50
2018-08-20T06:45:16.482Z,20.00
2018-08-20T06:47:46.713Z,20.00
2018-08-20T06:50:16.540Z,19.80
2018-08-20T06:52:46.525Z,20.00
2018-08-20T06:55:16.695Z,20.00
2018-08-20T06:57:47.101Z,20.40
2018-08-20T07:00:18.540Z,20.50
2018-08-20T07:02:47.861Z,20.60
2018-08-20T07:05:17.253Z,21.00
2018-08-20T07:07:46.726Z,21.30
2018-08-20T07:12:45.235Z,21.70
2018-08-20T07:15:15.599Z,21.50
2018-08-20T07:17:45.309Z,21.80
2018-08-20T07:22:45.765Z,22.00
2018-08-20T07:25:15.193Z,22.20
2018-08-20T07:27:44.626Z,22.30
2018-08-20T07:30:13.969Z,22.50
2018-08-20T07:32:43.397Z,22.70
2018-08-20T07:35:12.794Z,23.20
2018-08-20T07:37:42.202Z,23.40
2018-08-20T07:40:11.635Z,23.50
2018-08-20T07:42:40.993Z,23.60
2018-08-20T07:45:10.335Z,23.80
2018-08-20T07:47:39.665Z,24.10
2018-08-20T07:50:09.865Z,23.80
2018-08-20T07:52:39.313Z,23.50
2018-08-20T07:55:08.773Z,23.30
2018-08-20T07:57:38.218Z,23.30
2018-08-20T08:00:09.437Z,23.40
2018-08-20T08:02:39.269Z,23.60
2018-08-20T08:05:10.865Z,23.80
2018-08-20T08:07:40.597Z,24.00
2018-08-20T08:10:14.000Z,24.20
2018-08-20T08:12:43.382Z,24.30
2018-08-20T08:15:15.130Z,24.20
2018-08-20T08:17:45.637Z,24.30
2018-08-20T08:20:18.508Z,24.60
2018-08-20T08:22:47.864Z,24.70
2018-08-20T08:25:17.245Z,25.30
2018-08-20T08:27:46.535Z,25.50
2018-08-20T08:30:19.149Z,25.70
2018-08-20T08:32:48.589Z,25.40
2018-08-20T08:35:17.946Z,25.80
2018-08-20T08:37:47.345Z,25.80
2018-08-20T08:40:18.713Z,25.90
2018-08-20T08:42:48.231Z,25.70
2018-08-20T08:45:18.817Z,25.90
2018-08-20T08:47:48.289Z,25.70
2018-08-20T08:50:18.177Z,25.80
2018-08-20T08:52:47.754Z,25.90
2018-08-20T08:55:17.141Z,26.10
2018-08-20T08:57:46.473Z,26.10
2018-08-20T09:00:18.440Z,26.50
2018-08-20T09:02:47.817Z,26.90
2018-08-20T09:10:14.888Z,27.70
2018-08-20T09:12:43.972Z,27.70
2018-08-20T09:17:45.121Z,28.20
2018-08-20T09:20:18.666Z,28.30
2018-08-20T09:22:47.821Z,28.20
2018-08-20T09:25:16.945Z,27.80
2018-08-20T09:27:46.064Z,28.00
2018-08-20T09:30:23.369Z,28.10
2018-08-20T09:32:52.512Z,28.00
2018-08-20T09:35:21.680Z,27.60
2018-08-20T09:37:50.824Z,27.70
2018-08-20T09:40:21.034Z,28.10
2018-08-20T09:42:50.125Z,28.10
2018-08-20T09:45:19.505Z,27.60
2018-08-20T09:47:48.865Z,27.20
2018-08-20T09:50:18.181Z,26.70
2018-08-20T09:52:47.557Z,26.40
2018-08-20T09:55:17.001Z,26.30
2018-08-20T09:57:46.333Z,26.60
2018-08-20T10:00:26.187Z,26.70
2018-08-20T10:02:55.574Z,26.80
2018-08-20T10:05:25.089Z,26.50
2018-08-20T10:07:54.509Z,26.60
2018-08-20T10:10:26.065Z,26.80
2018-08-20T10:12:55.462Z,26.80
2018-08-20T10:15:24.869Z,26.80
2018-08-20T10:17:54.378Z,26.90
2018-08-20T10:20:27.110Z,27.00
2018-08-20T10:22:56.594Z,26.90
2018-08-20T10:25:26.100Z,27.10
2018-08-20T10:27:55.473Z,27.30
2018-08-20T10:30:28.070Z,27.80
2018-08-20T10:32:57.409Z,28.10
2018-08-20T10:35:26.801Z,28.10
2018-08-20T10:37:56.235Z,27.90
2018-08-20T10:40:26.610Z,28.10
2018-08-20T10:42:55.985Z,28.90
2018-08-20T10:45:30.526Z,28.90
2018-08-20T10:47:59.881Z,28.50
2018-08-20T10:50:29.421Z,28.60
2018-08-20T10:52:58.767Z,28.60
2018-08-20T10:57:57.278Z,29.30
2018-08-20T11:00:43.442Z,29.00
2018-08-20T11:03:13.798Z,28.50
2018-08-20T11:05:43.121Z,28.90
2018-08-20T11:10:51.193Z,30.40
2018-08-20T11:13:20.469Z,30.10
2018-08-20T11:15:49.889Z,30.00
2018-08-20T11:18:19.302Z,30.20
2018-08-20T11:20:53.669Z,30.40
2018-08-20T11:23:23.057Z,29.80
2018-08-20T11:25:52.477Z,30.20
2018-08-20T11:28:22.046Z,30.00
2018-08-20T11:30:51.410Z,30.60
2018-08-20T11:33:20.865Z,30.30
2018-08-20T11:35:50.333Z,30.60
2018-08-20T11:38:19.739Z,30.20
2018-08-20T11:41:01.405Z,30.70
2018-08-20T11:45:59.929Z,31.10
2018-08-20T11:48:29.421Z,31.10
2018-08-20T11:53:30.310Z,33.60
2018-08-20T11:55:59.729Z,33.00
2018-08-20T11:58:29.104Z,32.30
2018-08-20T12:01:09.733Z,31.90
2018-08-20T12:03:39.145Z,31.50
2018-08-20T12:06:09.638Z,30.80
2018-08-20T12:08:39.600Z,32.30
2018-08-20T12:11:39.399Z,32.80
2018-08-20T12:16:38.041Z,35.10
2018-08-20T12:19:08.163Z,33.10
2018-08-20T12:21:40.949Z,32.70
2018-08-20T12:24:10.361Z,31.10
2018-08-20T12:26:39.718Z,31.50
2018-08-20T12:29:09.106Z,31.80
2018-08-20T12:31:38.629Z,32.10
2018-08-20T12:34:07.981Z,32.70
2018-08-20T12:36:37.870Z,33.30
2018-08-20T12:39:08.555Z,32.70
2018-08-20T12:41:37.965Z,32.20
2018-08-20T12:44:07.613Z,31.50
2018-08-20T12:46:37.005Z,31.40
2018-08-20T12:49:06.418Z,32.60
2018-08-20T12:51:35.867Z,33.30
2018-08-20T12:54:05.270Z,32.70
2018-08-20T12:56:34.718Z,33.90
2018-08-20T12:59:04.049Z,33.40
2018-08-20T13:01:33.545Z,32.70
2018-08-20T13:04:02.934Z,32.70
2018-08-20T13:06:32.397Z,33.10
2018-08-20T13:09:01.934Z,32.80
2018-08-20T13:11:31.312Z,31.50
2018-08-20T13:14:00.768Z,32.00
2018-08-20T13:16:30.169Z,31.60
2018-08-20T13:18:59.634Z,30.90
2018-08-20T13:21:29.025Z,30.90
2018-08-20T13:23:58.393Z,31.00
2018-08-20T13:26:27.745Z,31.30
2018-08-20T13:28:57.233Z,31.10
2018-08-20T13:31:26.838Z,31.50
2018-08-20T13:33:56.310Z,31.80
2018-08-20T13:36:25.877Z,31.70
2018-08-20T13:38:55.215Z,31.60
2018-08-20T13:41:24.773Z,32.40
2018-08-20T13:46:23.218Z,35.00
2018-08-20T13:48:52.609Z,34.60
2018-08-20T13:51:21.801Z,34.80
2018-08-20T13:53:50.930Z,32.90
2018-08-20T13:58:49.068Z,34.80
2018-08-20T14:01:18.172Z,35.30
2018-08-20T14:03:47.286Z,35.70
2018-08-20T14:06:16.386Z,37.50
2018-08-20T14:08:45.505Z,38.60
2018-08-20T14:11:14.645Z,38.90
2018-08-20T14:13:43.804Z,38.30
2018-08-20T14:16:12.956Z,37.50
2018-08-20T14:18:42.105Z,37.40
2018-08-20T14:23:44.057Z,35.40
2018-08-20T14:28:42.494Z,33.70
2018-08-20T14:31:11.833Z,33.30
2018-08-20T14:33:41.218Z,34.20
2018-08-20T14:36:10.697Z,35.10
2018-08-20T14:38:40.061Z,35.50
2018-08-20T14:41:09.561Z,35.80
2018-08-20T14:43:38.965Z,36.60
2018-08-20T14:46:13.587Z,36.10
2018-08-20T14:48:43.129Z,35.30
2018-08-20T14:51:12.695Z,35.60
2018-08-20T14:53:42.106Z,36.60
2018-08-20T14:56:11.649Z,36.30
2018-08-20T14:58:41.101Z,37.50
2018-08-20T15:01:10.529Z,38.40
2018-08-20T15:03:39.803Z,39.10
2018-08-20T15:06:09.168Z,39.30
2018-08-20T15:08:39.949Z,39.10
2018-08-20T15:11:09.454Z,37.70
2018-08-20T15:13:38.837Z,37.80
2018-08-20T15:16:08.458Z,38.30
2018-08-20T15:18:37.849Z,38.20
2018-08-20T15:21:07.253Z,37.20
2018-08-20T15:23:36.737Z,35.50
2018-08-20T15:26:06.209Z,34.30
2018-08-20T15:31:04.749Z,36.20
2018-08-20T15:33:34.689Z,37.40
2018-08-20T15:36:04.073Z,36.90
2018-08-20T15:38:33.406Z,37.50
2018-08-20T15:41:02.845Z,37.10
2018-08-20T15:43:32.266Z,37.20
2018-08-20T15:46:01.590Z,38.00
2018-08-20T15:48:30.985Z,37.80
2018-08-20T15:51:00.490Z,36.70
2018-08-20T15:53:29.902Z,36.20
2018-08-20T15:58:28.250Z,33.40
2018-08-20T16:03:26.666Z,32.30
2018-08-20T16:05:56.057Z,31.30
2018-08-20T16:08:25.417Z,31.50
2018-08-20T16:10:58.293Z,31.40
2018-08-20T16:13:27.729Z,31.60
2018-08-20T16:15:57.061Z,32.80
2018-08-20T16:18:26.436Z,32.40
2018-08-20T16:21:08.509Z,33.20
2018-08-20T16:23:37.979Z,33.60
2018-08-20T16:26:07.506Z,33.40
2018-08-20T16:28:36.961Z,32.90
2018-08-20T16:31:10.446Z,32.50
2018-08-20T16:33:39.816Z,31.70
2018-08-20T16:38:38.357Z,30.40
2018-08-20T16:41:08.849Z,30.80
2018-08-20T16:43:38.254Z,31.00
2018-08-20T16:46:07.577Z,31.00
2018-08-20T16:48:36.940Z,31.10
2018-08-20T16:51:09.722Z,31.10
2018-08-20T16:53:39.050Z,30.70
2018-08-20T17:01:16.337Z,29.60
2018-08-20T17:03:45.681Z,29.40
2018-08-20T17:06:15.073Z,29.10
2018-08-20T17:13:44.532Z,28.00
2018-08-20T17:16:15.418Z,28.00
2018-08-20T17:18:44.757Z,28.00
2018-08-20T17:21:14.261Z,27.90
2018-08-20T17:23:43.573Z,28.00
2018-08-20T17:26:12.911Z,27.90
2018-08-20T17:28:42.448Z,27.90
2018-08-20T17:31:25.114Z,27.70
2018-08-20T17:33:54.470Z,27.50
2018-08-20T17:36:23.817Z,27.20
2018-08-20T17:41:35.154Z,26.60
2018-08-20T17:44:04.311Z,26.70
2018-08-20T17:46:33.613Z,26.90
2018-08-20T17:49:03.002Z,26.90
2018-08-20T17:51:32.481Z,26.40
2018-08-20T17:54:01.837Z,26.50
2018-08-20T17:56:31.238Z,26.60
2018-08-20T17:59:06.751Z,26.30
2018-08-20T18:01:37.481Z,26.40
2018-08-20T18:04:07.135Z,26.10
2018-08-20T18:06:49.838Z,26.20
2018-08-20T18:09:19.266Z,26.20
2018-08-20T18:11:53.851Z,25.90
2018-08-20T18:14:24.374Z,25.90
2018-08-20T18:16:53.797Z,25.90
2018-08-20T18:19:23.185Z,25.70
2018-08-20T18:21:54.625Z,25.60
2018-08-20T18:24:24.025Z,25.50
2018-08-20T18:26:56.209Z,25.40
2018-08-20T18:29:25.558Z,25.30
2018-08-20T18:31:58.636Z,25.20
2018-08-20T18:34:27.941Z,25.20
2018-08-20T18:36:57.337Z,25.10
2018-08-20T18:39:26.676Z,25.10
2018-08-20T18:42:03.767Z,24.90
2018-08-20T18:44:33.182Z,24.70
2018-08-20T18:47:02.613Z,24.40
2018-08-20T18:49:32.098Z,24.30
2018-08-20T18:52:12.128Z,24.30
2018-08-20T18:54:49.813Z,24.10
2018-08-20T18:57:25.986Z,23.90
2018-08-20T18:59:57.726Z,23.90
2018-08-20T19:02:45.406Z,23.90
2018-08-20T19:05:16.164Z,23.90
2018-08-20T19:07:45.693Z,23.70
2018-08-20T19:10:21.330Z,23.50
2018-08-20T19:12:50.697Z,23.50
2018-08-20T19:15:40.455Z,23.40
2018-08-20T19:18:12.434Z,23.40
2018-08-20T19:20:45.878Z,23.10
2018-08-20T19:23:15.278Z,23.00
2018-08-20T19:25:44.653Z,22.90
2018-08-20T19:28:14.745Z,22.70
2018-08-20T19:30:53.861Z,22.50
2018-08-20T19:33:23.237Z,22.30
2018-08-20T19:35:53.406Z,22.30
2018-08-20T19:38:22.908Z,22.30
2018-08-20T19:41:03.752Z,22.10
2018-08-20T19:43:37.717Z,22.30
2018-08-20T19:46:07.158Z,22.20
2018-08-20T19:51:10.741Z,21.90
2018-08-20T19:53:40.181Z,21.80
2018-08-20T19:56:14.170Z,21.60
2018-08-20T19:58:44.758Z,21.70
2018-08-20T20:01:49.957Z,21.50
2018-08-20T20:04:19.418Z,21.50
2018-08-20T20:06:48.781Z,21.60
2018-08-20T20:09:18.166Z,21.50
2018-08-20T20:11:59.941Z,21.40
2018-08-20T20:14:34.229Z,21.50
2018-08-20T20:17:03.774Z,21.50
2018-08-20T20:19:33.139Z,21.50
2018-08-20T20:22:17.471Z,21.60
2018-08-20T20:24:46.933Z,21.50
2018-08-20T20:27:16.449Z,21.30
2018-08-20T20:29:45.866Z,21.10
2018-08-20T20:32:22.534Z,21.00
2018-08-20T20:34:52.055Z,21.00
2018-08-20T20:37:21.502Z,21.00
2018-08-20T20:39:55.960Z,21.10
2018-08-20T20:42:31.625Z,21.00
2018-08-20T20:45:01.037Z,20.90
2018-08-20T20:47:30.550Z,20.90
2018-08-20T20:49:59.904Z,20.80
2018-08-20T20:52:44.716Z,20.60
2018-08-20T20:55:14.161Z,20.50
2018-08-20T20:57:43.599Z,20.50
2018-08-20T21:00:12.966Z,20.50
2018-08-20T21:02:42.330Z,20.60
2018-08-20T21:05:12.505Z,20.60
2018-08-20T21:07:41.887Z,20.50
2018-08-20T21:10:11.304Z,20.40
2018-08-20T21:12:40.640Z,20.40
2018-08-20T21:15:10.169Z,20.30
2018-08-20T21:17:39.572Z,20.40
2018-08-20T21:20:08.953Z,20.40
2018-08-20T21:22:39.053Z,20.40
2018-08-20T21:25:09.647Z,20.40
2018-08-20T21:27:39.205Z,20.50
2018-08-20T21:30:08.608Z,20.50
2018-08-20T21:32:38.121Z,20.40
2018-08-20T21:35:07.434Z,20.40
2018-08-20T21:37:36.803Z,20.20
2018-08-20T21:40:06.202Z,20.00
2018-08-20T21:42:41.661Z,19.90
2018-08-20T21:45:11.422Z,20.00
2018-08-20T21:47:40.761Z,20.00
2018-08-20T21:50:10.151Z,20.10
2018-08-20T21:52:39.498Z,20.00
2018-08-20T21:55:08.947Z,19.80
2018-08-20T21:57:42.333Z,19.50
2018-08-20T22:00:16.618Z,19.50
2018-08-20T22:02:49.157Z,19.40
2018-08-20T22:05:18.529Z,19.20
2018-08-20T22:07:48.041Z,19.30
2018-08-20T22:10:17.449Z,19.40
2018-08-20T22:12:46.729Z,19.40
2018-08-20T22:15:16.141Z,19.30
2018-08-20T22:17:45.597Z,19.30
2018-08-20T22:20:15.131Z,19.30
2018-08-20T22:22:44.492Z,19.30
2018-08-20T22:25:16.368Z,19.20
2018-08-20T22:27:50.765Z,19.20
2018-08-20T22:30:20.143Z,19.20
2018-08-20T22:32:49.486Z,19.20
2018-08-20T22:35:24.681Z,19.20
2018-08-20T22:37:54.197Z,19.10
2018-08-20T22:40:23.847Z,18.80
2018-08-20T22:42:57.896Z,18.70
2018-08-20T22:45:27.330Z,18.50
2018-08-20T22:47:56.810Z,18.40
2018-08-20T22:50:34.309Z,18.60
2018-08-20T22:53:03.721Z,18.60
2018-08-20T22:55:33.166Z,18.40
2018-08-20T22:58:10.308Z,18.20
2018-08-20T23:00:40.745Z,18.20
2018-08-20T23:03:10.138Z,18.20
2018-08-20T23:05:39.266Z,18.10
2018-08-20T23:08:19.905Z,18.10
2018-08-20T23:10:50.157Z,18.00
2018-08-20T23:13:20.404Z,18.00
2018-08-20T23:15:49.688Z,17.80
2018-08-20T23:18:19.034Z,17.90
2018-08-20T23:20:49.562Z,17.80
2018-08-20T23:23:37.581Z,17.70
2018-08-20T23:26:09.449Z,17.90
2018-08-20T23:28:40.897Z,18.00
2018-08-20T23:31:29.213Z,18.10
2018-08-20T23:33:58.625Z,18.00
2018-08-20T23:36:28.029Z,17.80
2018-08-20T23:38:57.444Z,17.80
2018-08-20T23:41:26.874Z,17.80
2018-08-20T23:44:00.666Z,17.70
2018-08-20T23:46:48.751Z,17.70
2018-08-20T23:49:18.217Z,17.80
2018-08-20T23:52:02.543Z,17.80
2018-08-20T23:54:31.851Z,18.00
2018-08-20T23:57:01.182Z,18.00
2018-08-20T23:59:30.511Z,18.10
